createdAt,value
2023-04-15T00:01:11.180Z,0
2023-04-15T00:02:26.147Z,0
2023-04-15T00:03:42.340Z,0
2023-04-15T00:04:40.000Z,0
2023-04-15T00:05:56.000Z,0
2023-04-15T00:07:13.000Z,0
2023-04-15T00:08:29.000Z,0
2023-04-15T00:10:03.553Z,0
2023-04-15T00:11:00.000Z,0
2023-04-15T00:12:33.990Z,0
2023-04-15T00:13:49.213Z,0
2023-04-15T00:15:04.421Z,0
2023-04-15T00:16:01.000Z,0
2023-04-15T00:17:16.000Z,0
2023-04-15T00:18:31.000Z,0
2023-04-15T00:19:47.000Z,0
2023-04-15T00:21:21.479Z,0
2023-04-15T00:22:19.000Z,0
2023-04-15T00:23:53.873Z,0
2023-04-15T00:25:10.056Z,0
2023-04-15T00:26:26.256Z,0
2023-04-15T00:27:24.000Z,0
2023-04-15T00:28:40.000Z,0
2023-04-15T00:29:08.000Z,0
2023-04-15T00:29:56.000Z,0
2023-04-15T00:31:30.781Z,0
2023-04-15T00:32:47.219Z,0
2023-04-15T00:33:45.000Z,0
2023-04-15T00:36:34.823Z,0
2023-04-15T00:37:32.000Z,0
2023-04-15T00:38:49.000Z,0
2023-04-15T00:40:23.407Z,0
2023-04-15T00:41:21.000Z,0
2023-04-15T00:42:37.000Z,0
2023-04-15T00:43:53.000Z,0
2023-04-15T00:45:27.209Z,0
2023-04-15T00:46:24.000Z,0
2023-04-15T00:47:57.388Z,0
2023-04-15T00:48:54.000Z,0
2023-04-15T00:50:28.792Z,0
2023-04-15T00:51:27.000Z,0
2023-04-15T00:52:43.000Z,0
2023-04-15T00:55:01.151Z,0
2023-04-15T00:55:33.568Z,0
2023-04-15T00:56:31.000Z,0
2023-04-15T00:57:48.000Z,0
2023-04-15T00:59:22.149Z,0
2023-04-15T01:00:38.343Z,0
2023-04-15T01:01:54.785Z,0
2023-04-15T01:03:10.985Z,0
2023-04-15T01:04:09.000Z,0
2023-04-15T01:05:42.386Z,0
2023-04-15T01:07:23.037Z,0
2023-04-15T01:08:14.771Z,0
2023-04-15T01:09:12.000Z,0
2023-04-15T01:10:47.160Z,0
2023-04-15T01:11:45.000Z,0
2023-04-15T01:13:01.000Z,0
2023-04-15T01:14:16.000Z,0
2023-04-15T01:15:31.000Z,0
2023-04-15T01:16:47.000Z,0
2023-04-15T01:18:20.416Z,0
2023-04-15T01:19:18.000Z,0
2023-04-15T01:20:52.548Z,0
2023-04-15T01:21:50.000Z,0
2023-04-15T01:23:07.000Z,0
2023-04-15T01:24:23.000Z,0
2023-04-15T01:25:57.323Z,0
2023-04-15T01:27:13.766Z,0
2023-04-15T01:28:11.000Z,0
2023-04-15T01:29:28.000Z,0
2023-04-15T01:30:44.000Z,0
2023-04-15T01:31:59.000Z,0
2023-04-15T01:33:15.000Z,0
2023-04-15T01:34:31.000Z,0
2023-04-15T01:36:05.906Z,0
2023-04-15T01:37:04.000Z,0
2023-04-15T01:38:38.543Z,0
2023-04-15T01:39:36.000Z,0
2023-04-15T01:41:10.940Z,0
2023-04-15T01:42:09.000Z,0
2023-04-15T01:43:42.353Z,0
2023-04-15T01:44:39.000Z,0
2023-04-15T01:45:54.000Z,0
2023-04-15T01:47:09.000Z,0
2023-04-15T01:48:44.187Z,0
2023-04-15T01:49:42.000Z,0
2023-04-15T01:50:58.000Z,0
2023-04-15T01:52:14.000Z,0
2023-04-15T01:53:48.966Z,0
2023-04-15T01:54:47.000Z,0
2023-04-15T01:56:21.113Z,0
2023-04-15T01:57:37.551Z,0
2023-04-15T01:58:35.000Z,0
2023-04-15T01:59:51.000Z,0
2023-04-15T02:01:08.000Z,0
2023-04-15T02:02:24.000Z,0
2023-04-15T02:03:57.303Z,0
2023-04-15T02:04:55.000Z,0
2023-04-15T02:06:11.000Z,0
2023-04-15T02:07:28.000Z,0
2023-04-15T02:09:02.084Z,0
2023-04-15T02:10:18.528Z,0
2023-04-15T02:11:34.733Z,0
2023-04-15T02:12:31.000Z,0
2023-04-15T02:13:47.000Z,0
2023-04-15T02:15:21.357Z,0
2023-04-15T02:16:36.325Z,0
2023-04-15T02:17:33.000Z,0
2023-04-15T02:19:07.987Z,0
2023-04-15T02:20:06.000Z,0
2023-04-15T02:21:22.000Z,0
2023-04-15T02:23:18.627Z,0
2023-04-15T02:24:12.759Z,0
2023-04-15T02:25:10.000Z,0
2023-04-15T02:26:27.000Z,0
2023-04-15T02:27:43.000Z,0
2023-04-15T02:28:59.000Z,0
2023-04-15T02:30:15.000Z,0
2023-04-15T02:31:49.943Z,0
2023-04-15T02:33:06.127Z,0
2023-04-15T02:34:21.346Z,0
2023-04-15T02:35:40.529Z,0
2023-04-15T02:36:53.733Z,0
2023-04-15T02:37:51.000Z,0
2023-04-15T02:39:08.000Z,0
2023-04-15T02:40:24.000Z,0
2023-04-15T02:41:40.000Z,0
2023-04-15T02:43:13.731Z,0
2023-04-15T02:44:28.943Z,0
2023-04-15T02:45:27.000Z,0
2023-04-15T02:47:01.088Z,0
2023-04-15T02:47:58.000Z,0
2023-04-15T02:49:31.771Z,0
2023-04-15T02:50:47.967Z,0
2023-04-15T02:52:03.911Z,0
2023-04-15T02:53:02.000Z,0
2023-04-15T02:54:18.000Z,0
2023-04-15T02:55:34.000Z,0
2023-04-15T02:57:08.692Z,0
2023-04-15T02:58:07.000Z,0
2023-04-15T02:59:23.000Z,0
2023-04-15T03:00:39.000Z,0
2023-04-15T03:02:13.473Z,0
2023-04-15T03:03:11.000Z,0
2023-04-15T03:04:45.863Z,0
2023-04-15T03:06:01.322Z,0
2023-04-15T03:06:59.000Z,0
2023-04-15T03:08:33.709Z,0
2023-04-15T03:09:31.000Z,0
2023-04-15T03:10:48.000Z,0
2023-04-15T03:12:22.295Z,0
2023-04-15T03:13:20.000Z,0
2023-04-15T03:14:53.716Z,0
2023-04-15T03:15:50.000Z,0
2023-04-15T03:17:06.000Z,0
2023-04-15T03:18:21.000Z,0
2023-04-15T03:19:55.555Z,0
2023-04-15T03:21:48.508Z,0
2023-04-15T03:22:09.000Z,0
2023-04-15T03:23:44.146Z,0
2023-04-15T03:25:00.337Z,0
2023-04-15T03:25:58.000Z,0
2023-04-15T03:27:32.721Z,0
2023-04-15T03:28:30.000Z,0
2023-04-15T03:30:05.118Z,0
2023-04-15T03:31:03.000Z,0
2023-04-15T03:32:37.509Z,0
2023-04-15T03:33:35.000Z,0
2023-04-15T03:35:08.911Z,0
2023-04-15T03:36:07.000Z,0
2023-04-15T03:37:23.000Z,0
2023-04-15T03:38:57.497Z,0
2023-04-15T03:39:55.000Z,0
2023-04-15T03:41:29.902Z,0
2023-04-15T03:42:46.087Z,0
2023-04-15T03:43:43.000Z,0
2023-04-15T03:44:58.000Z,0
2023-04-15T03:46:32.709Z,0
2023-04-15T03:47:29.000Z,0
2023-04-15T03:48:45.000Z,0
2023-04-15T03:50:19.095Z,0
2023-04-15T03:51:17.000Z,0
2023-04-15T03:52:51.730Z,0
2023-04-15T03:53:49.000Z,0
2023-04-15T03:55:24.120Z,0
2023-04-15T03:56:40.321Z,0
2023-04-15T03:57:56.268Z,0
2023-04-15T03:58:54.000Z,0
2023-04-15T04:00:28.912Z,0
2023-04-15T04:00:38.000Z,0
2023-04-15T04:01:27.000Z,0
2023-04-15T04:02:43.000Z,0
2023-04-15T04:04:17.245Z,0
2023-04-15T04:05:32.700Z,0
2023-04-15T04:07:46.000Z,0
2023-04-15T04:09:21.289Z,0
2023-04-15T04:10:37.487Z,0
2023-04-15T04:11:53.679Z,0
2023-04-15T04:12:51.000Z,0
2023-04-15T04:14:06.998Z,0
2023-04-15T04:15:40.315Z,0
2023-04-15T04:16:38.000Z,0
2023-04-15T04:17:53.000Z,0
2023-04-15T04:19:08.000Z,0
2023-04-15T04:20:43.143Z,0
2023-04-15T04:21:41.000Z,0
2023-04-15T04:23:15.278Z,0
2023-04-15T04:24:13.000Z,0
2023-04-15T04:25:47.918Z,0
2023-04-15T04:26:46.000Z,0
2023-04-15T04:28:02.000Z,0
2023-04-15T04:28:30.000Z,0
2023-04-15T04:29:18.000Z,0
2023-04-15T04:30:34.000Z,0
2023-04-15T04:31:50.000Z,0
2023-04-15T04:33:25.087Z,0
2023-04-15T04:35:38.000Z,0
2023-04-15T04:37:12.000Z,0
2023-04-15T04:38:28.888Z,5
2023-04-15T04:39:26.000Z,5
2023-04-15T04:41:01.283Z,5
2023-04-15T04:41:59.000Z,5
2023-04-15T04:43:15.000Z,5
2023-04-15T04:44:48.888Z,5
2023-04-15T04:46:04.110Z,5
2023-04-15T04:47:02.000Z,5
2023-04-15T04:48:35.269Z,11
2023-04-15T04:49:50.730Z,11
2023-04-15T04:51:06.934Z,11
2023-04-15T04:52:22.871Z,11
2023-04-15T04:53:21.000Z,11
2023-04-15T04:54:37.000Z,16
2023-04-15T04:55:53.000Z,16
2023-04-15T04:57:27.902Z,16
2023-04-15T04:58:44.090Z,16
2023-04-15T05:00:00.043Z,16
2023-04-15T05:01:16.485Z,22
2023-04-15T05:02:14.000Z,22
2023-04-15T05:03:30.000Z,22
2023-04-15T05:05:05.080Z,22
2023-04-15T05:06:20.282Z,22
2023-04-15T05:07:18.000Z,28
2023-04-15T05:08:52.674Z,28
2023-04-15T05:09:50.000Z,28
2023-04-15T05:11:06.000Z,28
2023-04-15T05:12:23.000Z,33
2023-04-15T05:13:57.451Z,33
2023-04-15T05:15:12.673Z,33
2023-04-15T05:16:09.000Z,39
2023-04-15T05:17:44.094Z,39
2023-04-15T05:18:42.000Z,39
2023-04-15T05:19:57.000Z,45
2023-04-15T05:21:30.708Z,45
2023-04-15T05:22:28.000Z,50
2023-04-15T05:23:44.000Z,50
2023-04-15T05:25:01.000Z,56
2023-04-15T05:26:35.495Z,56
2023-04-15T05:27:51.698Z,56
2023-04-15T05:29:07.640Z,61
2023-04-15T05:30:05.000Z,61
2023-04-15T05:31:22.000Z,67
2023-04-15T05:32:56.467Z,73
2023-04-15T05:33:54.000Z,78
2023-04-15T05:35:28.865Z,90
2023-04-15T05:36:45.071Z,95
2023-04-15T05:37:43.000Z,112
2023-04-15T05:39:16.477Z,112
2023-04-15T05:40:14.000Z,129
2023-04-15T05:41:30.000Z,163
2023-04-15T05:42:46.000Z,174
2023-04-15T05:44:21.250Z,146
2023-04-15T05:45:37.199Z,118
2023-04-15T05:46:34.000Z,118
2023-04-15T05:48:07.891Z,129
2023-04-15T05:49:23.113Z,140
2023-04-15T05:50:20.000Z,157
2023-04-15T05:51:54.275Z,163
2023-04-15T05:52:52.000Z,168
2023-04-15T05:54:08.000Z,168
2023-04-15T05:55:24.000Z,157
2023-04-15T05:56:41.000Z,151
2023-04-15T05:58:15.503Z,157
2023-04-15T05:59:31.451Z,168
2023-04-15T06:00:29.000Z,196
2023-04-15T06:01:45.000Z,225
2023-04-15T06:03:02.000Z,213
2023-04-15T06:04:18.000Z,202
2023-04-15T06:05:52.430Z,202
2023-04-15T06:07:07.915Z,196
2023-04-15T06:08:05.000Z,208
2023-04-15T06:09:40.289Z,230
2023-04-15T06:10:56.469Z,225
2023-04-15T06:11:54.000Z,219
2023-04-15T06:13:10.000Z,247
2023-04-15T06:14:45.064Z,258
2023-04-15T06:15:42.000Z,225
2023-04-15T06:16:57.000Z,241
2023-04-15T06:18:13.000Z,236
2023-04-15T06:19:28.000Z,213
2023-04-15T06:20:44.000Z,213
2023-04-15T06:22:00.000Z,213
2023-04-15T06:23:34.534Z,213
2023-04-15T06:24:32.000Z,213
2023-04-15T06:26:06.917Z,213
2023-04-15T06:27:04.000Z,219
2023-04-15T06:28:21.000Z,213
2023-04-15T06:29:55.256Z,219
2023-04-15T06:30:53.000Z,219
2023-04-15T06:32:09.000Z,219
2023-04-15T06:33:25.000Z,213
2023-04-15T06:35:00.288Z,213
2023-04-15T06:35:58.000Z,208
2023-04-15T06:37:32.687Z,208
2023-04-15T06:38:48.872Z,208
2023-04-15T06:40:04.083Z,213
2023-04-15T06:41:20.036Z,213
2023-04-15T06:42:18.000Z,213
2023-04-15T06:43:34.000Z,213
2023-04-15T06:44:50.000Z,213
2023-04-15T06:46:24.090Z,213
2023-04-15T06:47:21.000Z,213
2023-04-15T06:48:37.000Z,213
2023-04-15T06:50:10.477Z,219
2023-04-15T06:51:08.000Z,225
2023-04-15T06:52:41.885Z,225
2023-04-15T06:53:40.000Z,230
2023-04-15T06:54:56.000Z,236
2023-04-15T06:56:12.000Z,241
2023-04-15T06:57:28.000Z,247
2023-04-15T06:58:44.000Z,247
2023-04-15T07:00:19.060Z,253
2023-04-15T07:00:29.000Z,258
2023-04-15T07:01:17.000Z,258
2023-04-15T07:02:33.000Z,258
2023-04-15T07:03:49.000Z,258
2023-04-15T07:05:05.000Z,258
2023-04-15T07:07:56.476Z,264
2023-04-15T07:09:11.446Z,270
2023-04-15T07:10:27.642Z,275
2023-04-15T07:11:25.000Z,275
2023-04-15T07:13:00.035Z,275
2023-04-15T07:13:08.000Z,275
2023-04-15T07:13:58.000Z,275
2023-04-15T07:15:14.000Z,275
2023-04-15T07:16:29.000Z,275
2023-04-15T07:17:44.000Z,275
2023-04-15T07:20:34.520Z,281
2023-04-15T07:21:31.000Z,281
2023-04-15T07:23:05.689Z,286
2023-04-15T07:24:22.131Z,292
2023-04-15T07:25:20.000Z,298
2023-04-15T07:26:36.000Z,303
2023-04-15T07:28:10.473Z,309
2023-04-15T07:29:26.915Z,315
2023-04-15T07:30:42.865Z,315
2023-04-15T07:31:41.000Z,320
2023-04-15T07:32:57.000Z,320
2023-04-15T07:34:31.453Z,326
2023-04-15T07:35:29.000Z,320
2023-04-15T07:36:45.000Z,320
2023-04-15T07:38:19.304Z,315
2023-04-15T07:39:35.494Z,315
2023-04-15T07:40:51.704Z,315
2023-04-15T07:41:49.000Z,309
2023-04-15T07:43:23.841Z,303
2023-04-15T07:44:22.000Z,303
2023-04-15T07:45:56.232Z,303
2023-04-15T07:47:11.698Z,303
2023-04-15T07:48:08.000Z,298
2023-04-15T07:49:24.000Z,298
2023-04-15T07:50:59.302Z,298
2023-04-15T07:52:15.494Z,303
2023-04-15T07:53:31.449Z,303
2023-04-15T07:54:29.000Z,309
2023-04-15T07:55:45.000Z,315
2023-04-15T07:57:02.000Z,320
2023-04-15T07:58:18.000Z,320
2023-04-15T07:59:52.698Z,320
2023-04-15T08:01:08.625Z,326
2023-04-15T08:02:06.000Z,331
2023-04-15T08:03:23.000Z,337
2023-04-15T08:04:56.228Z,337
2023-04-15T08:06:12.673Z,337
2023-04-15T08:07:10.000Z,337
2023-04-15T08:08:44.816Z,343
2023-04-15T08:10:01.253Z,343
2023-04-15T08:10:59.000Z,348
2023-04-15T08:12:15.000Z,354
2023-04-15T08:13:30.000Z,348
2023-04-15T08:14:45.000Z,343
2023-04-15T08:16:19.059Z,343
2023-04-15T08:17:16.000Z,343
2023-04-15T08:18:50.715Z,343
2023-04-15T08:20:06.662Z,337
2023-04-15T08:21:04.000Z,337
2023-04-15T08:22:21.000Z,343
2023-04-15T08:23:55.502Z,354
2023-04-15T08:24:53.000Z,360
2023-04-15T08:26:27.902Z,360
2023-04-15T08:27:25.000Z,365
2023-04-15T08:29:00.279Z,365
2023-04-15T08:30:16.229Z,365
2023-04-15T08:31:32.425Z,354
2023-04-15T08:32:48.870Z,354
2023-04-15T08:34:03.833Z,348
2023-04-15T08:35:02.000Z,343
2023-04-15T08:36:18.000Z,343
2023-04-15T08:37:34.000Z,343
2023-04-15T08:39:08.616Z,343
2023-04-15T08:40:06.000Z,348
2023-04-15T08:41:23.000Z,348
2023-04-15T08:42:38.000Z,354
2023-04-15T08:44:11.717Z,360
2023-04-15T08:45:09.000Z,371
2023-04-15T08:46:44.078Z,376
2023-04-15T08:47:42.000Z,382
2023-04-15T08:49:16.476Z,382
2023-04-15T08:50:14.000Z,382
2023-04-15T08:51:48.867Z,382
2023-04-15T08:52:46.000Z,382
2023-04-15T08:54:21.010Z,382
2023-04-15T08:55:19.000Z,376
2023-04-15T08:56:53.640Z,376
2023-04-15T08:58:09.849Z,371
2023-04-15T08:59:25.793Z,371
2023-04-15T09:00:41.250Z,371
2023-04-15T09:01:57.447Z,371
2023-04-15T09:02:55.000Z,371
2023-04-15T09:04:29.838Z,376
2023-04-15T09:05:27.000Z,376
2023-04-15T09:06:44.000Z,382
2023-04-15T09:08:18.423Z,388
2023-04-15T09:09:33.647Z,393
2023-04-15T09:10:30.000Z,393
2023-04-15T09:11:45.000Z,393
2023-04-15T09:13:01.000Z,393
2023-04-15T09:14:16.000Z,399
2023-04-15T09:15:31.000Z,399
2023-04-15T09:17:05.681Z,393
2023-04-15T09:18:03.000Z,393
2023-04-15T09:19:20.000Z,388
2023-04-15T09:20:36.000Z,376
2023-04-15T09:21:52.000Z,371
2023-04-15T09:23:08.000Z,365
2023-04-15T09:24:43.107Z,365
2023-04-15T09:24:53.000Z,326
2023-04-15T09:25:41.000Z,365
2023-04-15T09:27:15.247Z,360
2023-04-15T09:28:31.688Z,354
2023-04-15T09:29:47.885Z,343
2023-04-15T09:32:19.292Z,326
2023-04-15T09:33:17.000Z,331
2023-04-15T09:34:51.691Z,331
2023-04-15T09:36:07.877Z,331
2023-04-15T09:37:05.000Z,326
2023-04-15T09:38:22.000Z,337
2023-04-15T09:39:56.223Z,343
2023-04-15T09:40:03.000Z,393
2023-04-15T09:40:53.000Z,354
2023-04-15T09:42:08.000Z,360
2023-04-15T09:43:42.853Z,376
2023-04-15T09:44:59.299Z,382
2023-04-15T09:47:30.719Z,399
2023-04-15T09:48:27.000Z,399
2023-04-15T09:50:01.876Z,393
2023-04-15T09:50:12.000Z,354
2023-04-15T09:51:18.315Z,388
2023-04-15T09:52:16.000Z,376
2023-04-15T09:53:32.000Z,365
2023-04-15T09:54:48.000Z,365
2023-04-15T09:57:21.000Z,348
2023-04-15T09:58:55.490Z,348
2023-04-15T10:00:11.682Z,343
2023-04-15T10:01:26.905Z,354
2023-04-15T10:02:42.855Z,343
2023-04-15T10:02:52.000Z,326
2023-04-15T10:03:41.000Z,348
2023-04-15T10:04:57.000Z,360
2023-04-15T10:06:13.000Z,360
2023-04-15T10:07:29.000Z,343
2023-04-15T10:10:20.031Z,292
2023-04-15T10:11:18.000Z,286
2023-04-15T10:12:51.699Z,275
2023-04-15T10:13:48.000Z,281
2023-04-15T10:15:21.883Z,264
2023-04-15T10:16:19.000Z,264
2023-04-15T10:18:51.000Z,275
2023-04-15T10:20:25.682Z,281
2023-04-15T10:21:41.877Z,286
2023-04-15T10:22:40.000Z,292
2023-04-15T10:23:56.000Z,298
2023-04-15T10:25:30.736Z,303
2023-04-15T10:26:28.000Z,292
2023-04-15T10:28:02.859Z,303
2023-04-15T10:29:19.301Z,309
2023-04-15T10:30:35.505Z,298
2023-04-15T10:31:51.697Z,298
2023-04-15T10:32:00.000Z,309
2023-04-15T10:33:06.904Z,298
2023-04-15T10:34:22.854Z,298
2023-04-15T10:35:39.050Z,303
2023-04-15T10:37:13.960Z,303
2023-04-15T10:39:27.637Z,315
2023-04-15T10:40:44.082Z,320
2023-04-15T10:41:42.000Z,326
2023-04-15T10:43:16.225Z,320
2023-04-15T10:44:31.693Z,326
2023-04-15T10:45:29.000Z,326
2023-04-15T10:47:02.866Z,337
2023-04-15T10:48:18.078Z,315
2023-04-15T10:49:34.516Z,315
2023-04-15T10:50:50.729Z,337
2023-04-15T10:51:00.000Z,376
2023-04-15T10:51:48.000Z,348
2023-04-15T10:53:04.000Z,354
2023-04-15T10:54:21.000Z,365
2023-04-15T10:55:55.499Z,376
2023-04-15T10:58:27.644Z,382
2023-04-15T10:59:43.838Z,393
2023-04-15T11:01:00.032Z,399
2023-04-15T11:02:13.000Z,410
2023-04-15T11:03:32.668Z,376
2023-04-15T11:04:29.000Z,354
2023-04-15T11:06:04.074Z,371
2023-04-15T11:07:20.265Z,360
2023-04-15T11:08:36.210Z,365
2023-04-15T11:09:34.000Z,365
2023-04-15T11:11:08.597Z,365
2023-04-15T11:12:24.791Z,371
2023-04-15T11:13:40.012Z,382
2023-04-15T11:14:37.000Z,405
2023-04-15T11:16:11.666Z,393
2023-04-15T11:17:09.000Z,393
2023-04-15T11:18:43.803Z,399
2023-04-15T11:19:59.996Z,405
2023-04-15T11:21:16.190Z,410
2023-04-15T11:22:14.000Z,399
2023-04-15T11:23:48.831Z,405
2023-04-15T11:25:04.771Z,444
2023-04-15T11:26:20.964Z,410
2023-04-15T11:27:37.401Z,410
2023-04-15T11:28:35.000Z,427
2023-04-15T11:29:51.000Z,405
2023-04-15T11:31:24.755Z,405
2023-04-15T11:32:22.000Z,410
2023-04-15T11:33:57.142Z,421
2023-04-15T11:35:13.584Z,399
2023-04-15T11:36:29.530Z,433
2023-04-15T11:37:27.000Z,410
2023-04-15T11:39:01.917Z,331
2023-04-15T11:40:17.137Z,343
2023-04-15T11:40:24.000Z,438
2023-04-15T11:41:32.347Z,270
2023-04-15T11:42:30.000Z,286
2023-04-15T11:44:03.761Z,258
2023-04-15T11:45:01.000Z,343
2023-04-15T11:47:50.384Z,315
2023-04-15T11:49:06.578Z,298
2023-04-15T11:50:04.000Z,236
2023-04-15T11:51:37.992Z,253
2023-04-15T11:51:47.000Z,225
2023-04-15T11:52:35.000Z,275
2023-04-15T11:53:03.000Z,247
2023-04-15T11:53:51.000Z,376
2023-04-15T11:54:19.000Z,253
2023-04-15T11:55:07.000Z,348
2023-04-15T11:55:35.000Z,275
2023-04-15T11:56:41.783Z,247
2023-04-15T12:03:02.751Z,270
2023-04-15T12:04:18.944Z,253
2023-04-15T12:06:08.282Z,247
2023-04-15T12:06:51.331Z,309
2023-04-15T12:08:07.525Z,410
2023-04-15T12:09:22.998Z,489
2023-04-15T12:10:39.188Z,511
2023-04-15T12:11:55.122Z,534
2023-04-15T12:13:11.561Z,534
2023-04-15T12:14:27.509Z,545
2023-04-15T12:15:43.703Z,528
2023-04-15T12:17:00.147Z,528
2023-04-15T12:18:28.193Z,511
2023-04-15T12:19:30.567Z,472
2023-04-15T12:20:45.548Z,455
2023-04-15T12:22:00.758Z,450
2023-04-15T12:22:58.000Z,466
2023-04-15T12:24:33.145Z,444
2023-04-15T12:26:36.377Z,399
2023-04-15T12:27:05.781Z,326
2023-04-15T12:28:21.726Z,303
2023-04-15T12:29:19.000Z,365
2023-04-15T12:30:54.113Z,410
2023-04-15T12:31:52.000Z,326
2023-04-15T12:32:19.000Z,270
2023-04-15T12:33:08.000Z,326
2023-04-15T12:34:24.000Z,365
2023-04-15T12:35:59.146Z,354
2023-04-15T12:37:15.341Z,303
2023-04-15T12:39:46.485Z,236
2023-04-15T12:41:02.679Z,219
2023-04-15T12:42:19.127Z,196
2023-04-15T12:43:35.314Z,168
2023-04-15T12:44:51.507Z,168
2023-04-15T12:46:07.702Z,140
2023-04-15T12:46:14.000Z,106
2023-04-15T12:47:23.890Z,118
2023-04-15T12:48:20.000Z,106
2023-04-15T12:49:55.060Z,118
2023-04-15T12:51:10.526Z,106
2023-04-15T12:53:41.939Z,112
2023-04-15T12:54:57.877Z,106
2023-04-15T12:55:56.000Z,101
2023-04-15T12:57:30.520Z,106
2023-04-15T12:59:30.324Z,123
2023-04-15T12:59:44.000Z,146
2023-04-15T13:01:00.000Z,174
2023-04-15T13:02:35.291Z,202
2023-04-15T13:03:33.000Z,236
2023-04-15T13:05:07.427Z,208
2023-04-15T13:06:23.621Z,185
2023-04-15T13:07:40.070Z,168
2023-04-15T13:08:37.000Z,163
2023-04-15T13:09:53.000Z,151
2023-04-15T13:11:27.665Z,168
2023-04-15T13:12:43.857Z,208
2023-04-15T13:12:52.000Z,112
2023-04-15T13:13:41.000Z,174
2023-04-15T13:15:15.993Z,135
2023-04-15T13:16:14.000Z,118
2023-04-15T13:17:30.000Z,106
2023-04-15T13:20:19.795Z,101
2023-04-15T13:21:35.005Z,118
2023-04-15T13:22:51.453Z,146
2023-04-15T13:23:49.000Z,185
2023-04-15T13:25:22.612Z,180
2023-04-15T13:26:38.080Z,191
2023-04-15T13:27:54.016Z,202
2023-04-15T13:28:04.000Z,196
2023-04-15T13:29:10.460Z,180
2023-04-15T13:30:08.000Z,185
2023-04-15T13:31:42.597Z,196
2023-04-15T13:32:40.000Z,196
2023-04-15T13:35:31.178Z,202
2023-04-15T13:36:47.620Z,230
2023-04-15T13:37:45.000Z,213
2023-04-15T13:39:01.000Z,213
2023-04-15T13:40:17.000Z,208
2023-04-15T13:40:44.000Z,135
2023-04-15T13:41:34.000Z,196
2023-04-15T13:42:01.000Z,118
2023-04-15T13:43:07.612Z,202
2023-04-15T13:44:05.000Z,168
2023-04-15T13:45:21.000Z,163
2023-04-15T13:48:20.000Z,129
2023-04-15T13:49:10.000Z,123
2023-04-15T13:50:44.518Z,129
2023-04-15T13:51:59.738Z,118
2023-04-15T13:53:15.931Z,118
2023-04-15T13:54:39.000Z,95
2023-04-15T13:55:46.605Z,106
2023-04-15T13:56:43.000Z,101
2023-04-15T13:57:59.000Z,101
2023-04-15T13:59:15.000Z,95
2023-04-15T14:01:48.000Z,95
2023-04-15T14:03:04.000Z,90
2023-04-15T14:03:32.000Z,84
2023-04-15T14:04:38.735Z,95
2023-04-15T14:05:54.928Z,106
2023-04-15T14:07:11.374Z,90
2023-04-15T14:08:27.570Z,84
2023-04-15T14:10:41.000Z,84
2023-04-15T14:12:28.373Z,90
2023-04-15T14:13:14.000Z,78
2023-04-15T14:14:47.301Z,95
2023-04-15T14:16:02.777Z,95
2023-04-15T14:17:00.000Z,106
2023-04-15T14:18:34.904Z,101
2023-04-15T14:20:39.537Z,101
2023-04-15T14:21:07.291Z,135
2023-04-15T14:22:22.511Z,135
2023-04-15T14:23:38.704Z,112
2023-04-15T14:25:44.326Z,106
2023-04-15T14:25:51.000Z,101
2023-04-15T14:27:25.329Z,101
2023-04-15T14:28:40.539Z,123
2023-04-15T14:29:38.000Z,140
2023-04-15T14:31:13.181Z,140
2023-04-15T14:32:29.119Z,157
2023-04-15T14:33:45.313Z,140
2023-04-15T14:35:01.507Z,157
2023-04-15T14:35:11.000Z,123
2023-04-15T14:35:59.000Z,196
2023-04-15T14:37:33.894Z,202
2023-04-15T14:38:50.088Z,191
2023-04-15T14:39:48.000Z,129
2023-04-15T14:41:31.000Z,106
2023-04-15T14:42:20.000Z,174
2023-04-15T14:43:54.863Z,123
2023-04-15T14:44:52.000Z,101
2023-04-15T14:46:26.266Z,112
2023-04-15T14:48:58.653Z,106
2023-04-15T14:49:56.000Z,101
2023-04-15T14:51:31.041Z,84
2023-04-15T14:52:28.000Z,73
2023-04-15T14:53:43.000Z,78
2023-04-15T14:55:16.931Z,84
2023-04-15T14:56:13.000Z,90
2023-04-15T14:57:48.095Z,90
2023-04-15T14:59:04.288Z,101
2023-04-15T15:00:02.000Z,118
2023-04-15T15:01:36.675Z,95
2023-04-15T15:02:34.000Z,84
2023-04-15T15:03:51.000Z,78
2023-04-15T15:05:25.257Z,84
2023-04-15T15:07:39.000Z,101
2023-04-15T15:08:55.000Z,73
2023-04-15T15:10:12.000Z,95
2023-04-15T15:11:46.225Z,157
2023-04-15T15:12:43.000Z,123
2023-04-15T15:14:17.630Z,112
2023-04-15T15:15:15.000Z,123
2023-04-15T15:16:50.018Z,101
2023-04-15T15:16:58.000Z,61
2023-04-15T15:18:09.336Z,73
2023-04-15T15:19:22.406Z,73
2023-04-15T15:20:20.000Z,67
2023-04-15T15:21:54.793Z,61
2023-04-15T15:24:25.223Z,73
2023-04-15T15:25:40.443Z,67
2023-04-15T15:26:55.654Z,61
2023-04-15T15:28:12.096Z,56
2023-04-15T15:29:28.041Z,45
2023-04-15T15:30:44.235Z,50
2023-04-15T15:32:00.429Z,45
2023-04-15T15:33:16.623Z,50
2023-04-15T15:33:26.000Z,106
2023-04-15T15:34:14.000Z,61
2023-04-15T15:35:49.010Z,78
2023-04-15T15:37:05.204Z,84
2023-04-15T15:38:03.000Z,101
2023-04-15T15:41:43.794Z,118
2023-04-15T15:42:09.980Z,118
2023-04-15T15:43:25.190Z,135
2023-04-15T15:44:41.385Z,140
2023-04-15T15:45:57.579Z,140
2023-04-15T15:46:55.000Z,123
2023-04-15T15:48:11.000Z,135
2023-04-15T15:49:46.159Z,101
2023-04-15T15:51:02.599Z,95
2023-04-15T15:52:17.574Z,95
2023-04-15T15:53:14.000Z,90
2023-04-15T15:54:48.005Z,84
2023-04-15T15:56:03.456Z,84
2023-04-15T15:57:01.000Z,73
2023-04-15T15:58:35.855Z,61
2023-04-15T15:59:51.795Z,50
2023-04-15T16:01:11.888Z,45
2023-04-15T16:02:24.183Z,45
2023-04-15T16:03:22.000Z,33
2023-04-15T16:04:38.000Z,39
2023-04-15T16:05:54.000Z,28
2023-04-15T16:07:28.958Z,22
2023-04-15T16:08:27.000Z,22
2023-04-15T16:10:01.345Z,33
2023-04-15T16:11:17.539Z,45
2023-04-15T16:12:14.000Z,22
2023-04-15T16:14:33.778Z,28
2023-04-15T16:14:47.000Z,50
2023-04-15T16:16:21.330Z,33
2023-04-15T16:17:37.769Z,45
2023-04-15T16:18:35.000Z,45
2023-04-15T16:19:01.000Z,56
2023-04-15T16:19:51.000Z,45
2023-04-15T16:20:17.000Z,45
2023-04-15T16:21:07.000Z,50
2023-04-15T16:22:41.326Z,56
2023-04-15T16:24:49.319Z,56
2023-04-15T16:27:45.118Z,39
2023-04-15T16:28:43.000Z,28
2023-04-15T16:30:17.506Z,22
2023-04-15T16:31:33.952Z,28
2023-04-15T16:32:31.000Z,28
2023-04-15T16:32:59.000Z,28
2023-04-15T16:33:48.000Z,28
2023-04-15T16:35:22.527Z,28
2023-04-15T16:36:20.000Z,28
2023-04-15T16:36:47.000Z,16
2023-04-15T16:37:54.925Z,33
2023-04-15T16:40:08.000Z,22
2023-04-15T16:41:24.000Z,16
2023-04-15T16:43:08.000Z,11
2023-04-15T16:43:56.000Z,16
2023-04-15T16:45:31.098Z,16
2023-04-15T16:46:29.000Z,16
2023-04-15T16:48:03.487Z,11
2023-04-15T16:50:17.000Z,16
2023-04-15T16:51:33.000Z,11
2023-04-15T16:53:08.010Z,5
2023-04-15T16:53:16.000Z,11
2023-04-15T16:54:06.000Z,5
2023-04-15T16:55:22.000Z,11
2023-04-15T16:56:55.608Z,16
2023-04-15T16:57:53.000Z,16
2023-04-15T16:58:21.000Z,11
2023-04-15T17:00:44.189Z,11
2023-04-15T17:01:42.000Z,11
2023-04-15T17:03:16.820Z,11
2023-04-15T17:04:39.000Z,16
2023-04-15T17:05:30.000Z,16
2023-04-15T17:07:04.185Z,11
2023-04-15T17:08:19.396Z,16
2023-04-15T17:09:17.000Z,16
2023-04-15T17:12:06.019Z,16
2023-04-15T17:13:22.213Z,16
2023-04-15T17:14:20.000Z,16
2023-04-15T17:15:54.848Z,16
2023-04-15T17:16:51.000Z,16
2023-04-15T17:18:25.031Z,16
2023-04-15T17:19:23.000Z,16
2023-04-15T17:20:39.000Z,11
2023-04-15T17:21:55.000Z,11
2023-04-15T17:22:23.000Z,11
2023-04-15T17:23:29.807Z,11
2023-04-15T17:24:27.000Z,11
2023-04-15T17:26:02.441Z,11
2023-04-15T17:27:18.388Z,11
2023-04-15T17:29:32.000Z,11
2023-04-15T17:30:48.000Z,11
2023-04-15T17:32:05.000Z,11
2023-04-15T17:33:39.358Z,11
2023-04-15T17:34:54.568Z,5
2023-04-15T17:35:52.000Z,11
2023-04-15T17:37:08.000Z,5
2023-04-15T17:38:43.149Z,5
2023-04-15T17:39:41.000Z,5
2023-04-15T17:41:15.537Z,5
2023-04-15T17:42:13.000Z,5
2023-04-15T17:43:28.000Z,5
2023-04-15T17:44:44.000Z,5
2023-04-15T17:46:18.355Z,5
2023-04-15T17:47:34.549Z,5
2023-04-15T17:48:31.000Z,5
2023-04-15T17:48:58.000Z,0
2023-04-15T17:49:46.000Z,5
2023-04-15T17:51:03.000Z,0
2023-04-15T17:52:37.618Z,0
2023-04-15T17:53:35.000Z,0
2023-04-15T17:56:07.000Z,0
2023-04-15T17:57:42.142Z,0